sensor_id;sensor_type;location;lat;lon;timestamp;temperature;humidity
28959;DHT22;16066;0.000;0.000;2023-04-24T00:01:54;19.80;44.50
28959;DHT22;16066;0.000;0.000;2023-04-24T00:04:20;19.80;44.40
28959;DHT22;16066;0.000;0.000;2023-04-24T00:06:45;19.70;44.50
28959;DHT22;16066;0.000;0.000;2023-04-24T00:09:14;19.70;44.50
28959;DHT22;16066;0.000;0.000;2023-04-24T00:11:41;19.70;44.40
28959;DHT22;16066;0.000;0.000;2023-04-24T00:14:06;19.70;44.50
28959;DHT22;16066;0.000;0.000;2023-04-24T00:16:32;19.70;44.50
28959;DHT22;16066;0.000;0.000;2023-04-24T00:18:57;19.70;44.50
28959;DHT22;16066;0.000;0.000;2023-04-24T00:21:23;19.70;44.50
28959;DHT22;16066;0.000;0.000;2023-04-24T00:23:50;19.70;44.50
28959;DHT22;16066;0.000;0.000;2023-04-24T00:26:16;19.70;44.50
28959;DHT22;16066;0.000;0.000;2023-04-24T00:28:42;19.70;44.40
28959;DHT22;16066;0.000;0.000;2023-04-24T00:31:07;19.70;44.40
28959;DHT22;16066;0.000;0.000;2023-04-24T00:33:33;19.70;44.40
28959;DHT22;16066;0.000;0.000;2023-04-24T00:35:59;19.70;44.40
28959;DHT22;16066;0.000;0.000;2023-04-24T00:38:24;19.60;44.40
28959;DHT22;16066;0.000;0.000;2023-04-24T00:40:50;19.70;44.40
28959;DHT22;16066;0.000;0.000;2023-04-24T00:43:16;19.60;44.40
28959;DHT22;16066;0.000;0.000;2023-04-24T00:45:42;19.60;44.50
28959;DHT22;16066;0.000;0.000;2023-04-24T00:48:08;19.60;44.50
28959;DHT22;16066;0.000;0.000;2023-04-24T00:50:36;19.60;44.50
28959;DHT22;16066;0.000;0.000;2023-04-24T00:53:01;19.60;44.40
28959;DHT22;16066;0.000;0.000;2023-04-24T00:55:27;19.60;44.50
28959;DHT22;16066;0.000;0.000;2023-04-24T00:57:53;19.60;44.40
28959;DHT22;16066;0.000;0.000;2023-04-24T01:00:19;19.60;44.30
28959;DHT22;16066;0.000;0.000;2023-04-24T01:02:44;19.60;44.30
28959;DHT22;16066;0.000;0.000;2023-04-24T01:05:13;19.60;44.40
28959;DHT22;16066;0.000;0.000;2023-04-24T01:07:39;19.60;44.40
28959;DHT22;16066;0.000;0.000;2023-04-24T01:10:07;19.60;44.40
28959;DHT22;16066;0.000;0.000;2023-04-24T01:12:33;19.60;44.30
28959;DHT22;16066;0.000;0.000;2023-04-24T01:14:59;19.60;44.30
28959;DHT22;16066;0.000;0.000;2023-04-24T01:17:24;19.60;44.40
28959;DHT22;16066;0.000;0.000;2023-04-24T01:19:50;19.60;44.40
28959;DHT22;16066;0.000;0.000;2023-04-24T01:22:19;19.50;44.30
28959;DHT22;16066;0.000;0.000;2023-04-24T01:24:46;19.50;44.20
28959;DHT22;16066;0.000;0.000;2023-04-24T01:27:12;19.50;44.30
28959;DHT22;16066;0.000;0.000;2023-04-24T01:29:37;19.50;44.30
28959;DHT22;16066;0.000;0.000;2023-04-24T01:32:04;19.50;44.30
28959;DHT22;16066;0.000;0.000;2023-04-24T01:34:30;19.50;44.30
28959;DHT22;16066;0.000;0.000;2023-04-24T01:36:56;19.50;44.30
28959;DHT22;16066;0.000;0.000;2023-04-24T01:39:22;19.50;44.30
28959;DHT22;16066;0.000;0.000;2023-04-24T01:41:48;19.50;44.30
28959;DHT22;16066;0.000;0.000;2023-04-24T01:44:15;19.50;44.30
28959;DHT22;16066;0.000;0.000;2023-04-24T01:46:41;19.50;44.30
28959;DHT22;16066;0.000;0.000;2023-04-24T01:49:07;19.50;44.10
28959;DHT22;16066;0.000;0.000;2023-04-24T01:51:32;19.50;44.10
28959;DHT22;16066;0.000;0.000;2023-04-24T01:53:58;19.50;44.10
28959;DHT22;16066;0.000;0.000;2023-04-24T01:56:24;19.50;44.30
28959;DHT22;16066;0.000;0.000;2023-04-24T01:58:52;19.50;44.10
28959;DHT22;16066;0.000;0.000;2023-04-24T02:01:19;19.50;44.10
28959;DHT22;16066;0.000;0.000;2023-04-24T02:03:45;19.50;44.20
28959;DHT22;16066;0.000;0.000;2023-04-24T02:06:11;19.50;44.20
28959;DHT22;16066;0.000;0.000;2023-04-24T02:08:36;19.50;44.20
28959;DHT22;16066;0.000;0.000;2023-04-24T02:11:02;19.50;44.20
28959;DHT22;16066;0.000;0.000;2023-04-24T02:13:28;19.50;44.20
28959;DHT22;16066;0.000;0.000;2023-04-24T02:15:54;19.50;44.20
28959;DHT22;16066;0.000;0.000;2023-04-24T02:18:19;19.50;44.10
28959;DHT22;16066;0.000;0.000;2023-04-24T02:20:45;19.50;44.10
28959;DHT22;16066;0.000;0.000;2023-04-24T02:23:11;19.50;44.20
28959;DHT22;16066;0.000;0.000;2023-04-24T02:25:36;19.50;44.20
28959;DHT22;16066;0.000;0.000;2023-04-24T02:28:02;19.50;44.20
28959;DHT22;16066;0.000;0.000;2023-04-24T02:30:28;19.40;44.00
28959;DHT22;16066;0.000;0.000;2023-04-24T02:32:54;19.50;44.00
28959;DHT22;16066;0.000;0.000;2023-04-24T02:35:19;19.40;44.00
28959;DHT22;16066;0.000;0.000;2023-04-24T02:37:45;19.40;44.00
28959;DHT22;16066;0.000;0.000;2023-04-24T02:40:11;19.40;44.00
28959;DHT22;16066;0.000;0.000;2023-04-24T02:42:36;19.40;44.00
28959;DHT22;16066;0.000;0.000;2023-04-24T02:45:02;19.40;44.10
28959;DHT22;16066;0.000;0.000;2023-04-24T02:47:27;19.40;44.00
28959;DHT22;16066;0.000;0.000;2023-04-24T02:49:53;19.40;44.00
28959;DHT22;16066;0.000;0.000;2023-04-24T02:52:18;19.40;44.10
28959;DHT22;16066;0.000;0.000;2023-04-24T02:54:44;19.40;44.10
28959;DHT22;16066;0.000;0.000;2023-04-24T02:57:09;19.40;44.10
28959;DHT22;16066;0.000;0.000;2023-04-24T02:59:35;19.40;44.10
28959;DHT22;16066;0.000;0.000;2023-04-24T03:02:00;19.40;44.10
28959;DHT22;16066;0.000;0.000;2023-04-24T03:04:26;19.40;44.10
28959;DHT22;16066;0.000;0.000;2023-04-24T03:06:52;19.40;44.10
28959;DHT22;16066;0.000;0.000;2023-04-24T03:09:20;19.40;44.20
28959;DHT22;16066;0.000;0.000;2023-04-24T03:11:46;19.30;44.10
28959;DHT22;16066;0.000;0.000;2023-04-24T03:14:11;19.30;44.10
28959;DHT22;16066;0.000;0.000;2023-04-24T03:16:37;19.30;44.10
28959;DHT22;16066;0.000;0.000;2023-04-24T03:19:02;19.30;44.10
28959;DHT22;16066;0.000;0.000;2023-04-24T03:21:28;19.30;44.10
28959;DHT22;16066;0.000;0.000;2023-04-24T03:23:54;19.30;44.20
28959;DHT22;16066;0.000;0.000;2023-04-24T03:26:20;19.30;44.20
28959;DHT22;16066;0.000;0.000;2023-04-24T03:28:45;19.30;44.20
28959;DHT22;16066;0.000;0.000;2023-04-24T03:31:11;19.30;44.00
28959;DHT22;16066;0.000;0.000;2023-04-24T03:33:36;19.30;44.20
28959;DHT22;16066;0.000;0.000;2023-04-24T03:36:02;19.30;44.20
28959;DHT22;16066;0.000;0.000;2023-04-24T03:38:27;19.30;44.20
28959;DHT22;16066;0.000;0.000;2023-04-24T03:40:53;19.30;44.20
28959;DHT22;16066;0.000;0.000;2023-04-24T03:43:19;19.30;44.20
28959;DHT22;16066;0.000;0.000;2023-04-24T03:45:44;19.30;44.20
28959;DHT22;16066;0.000;0.000;2023-04-24T03:48:10;19.30;44.20
28959;DHT22;16066;0.000;0.000;2023-04-24T03:50:35;19.30;44.10
28959;DHT22;16066;0.000;0.000;2023-04-24T03:53:01;19.30;44.20
28959;DHT22;16066;0.000;0.000;2023-04-24T03:55:26;19.20;44.10
28959;DHT22;16066;0.000;0.000;2023-04-24T03:57:52;19.30;44.20
28959;DHT22;16066;0.000;0.000;2023-04-24T04:00:17;19.20;44.10
28959;DHT22;16066;0.000;0.000;2023-04-24T04:02:43;19.20;44.10
28959;DHT22;16066;0.000;0.000;2023-04-24T04:05:09;19.20;44.20
28959;DHT22;16066;0.000;0.000;2023-04-24T04:07:35;19.20;44.20
28959;DHT22;16066;0.000;0.000;2023-04-24T04:10:00;19.20;44.20
28959;DHT22;16066;0.000;0.000;2023-04-24T04:12:26;19.20;44.20
28959;DHT22;16066;0.000;0.000;2023-04-24T04:14:51;19.20;44.20
28959;DHT22;16066;0.000;0.000;2023-04-24T04:17:17;19.20;44.10
28959;DHT22;16066;0.000;0.000;2023-04-24T04:19:43;19.20;44.10
28959;DHT22;16066;0.000;0.000;2023-04-24T04:22:08;19.20;44.20
28959;DHT22;16066;0.000;0.000;2023-04-24T04:24:34;19.20;44.10
28959;DHT22;16066;0.000;0.000;2023-04-24T04:27:03;19.20;44.10
28959;DHT22;16066;0.000;0.000;2023-04-24T04:29:30;19.20;44.10
28959;DHT22;16066;0.000;0.000;2023-04-24T04:31:57;19.20;44.10
28959;DHT22;16066;0.000;0.000;2023-04-24T04:34:22;19.20;44.10
28959;DHT22;16066;0.000;0.000;2023-04-24T04:36:48;19.20;44.00
28959;DHT22;16066;0.000;0.000;2023-04-24T04:39:14;19.20;44.10
28959;DHT22;16066;0.000;0.000;2023-04-24T04:41:40;19.20;44.10
28959;DHT22;16066;0.000;0.000;2023-04-24T04:44:06;19.20;44.10
28959;DHT22;16066;0.000;0.000;2023-04-24T04:46:34;19.20;44.10
28959;DHT22;16066;0.000;0.000;2023-04-24T04:49:00;19.20;44.10
28959;DHT22;16066;0.000;0.000;2023-04-24T04:51:26;19.20;44.00
28959;DHT22;16066;0.000;0.000;2023-04-24T04:53:52;19.20;44.00
28959;DHT22;16066;0.000;0.000;2023-04-24T04:56:18;19.20;44.00
28959;DHT22;16066;0.000;0.000;2023-04-24T04:58:43;19.20;44.10
28959;DHT22;16066;0.000;0.000;2023-04-24T05:01:09;19.20;44.10
28959;DHT22;16066;0.000;0.000;2023-04-24T05:03:34;19.20;44.10
28959;DHT22;16066;0.000;0.000;2023-04-24T05:06:01;19.20;44.10
28959;DHT22;16066;0.000;0.000;2023-04-24T05:08:27;19.20;44.10
28959;DHT22;16066;0.000;0.000;2023-04-24T05:10:53;19.20;44.10
28959;DHT22;16066;0.000;0.000;2023-04-24T05:13:19;19.20;44.00
28959;DHT22;16066;0.000;0.000;2023-04-24T05:15:45;19.20;44.20
28959;DHT22;16066;0.000;0.000;2023-04-24T05:18:10;19.20;44.20
28959;DHT22;16066;0.000;0.000;2023-04-24T05:20:36;19.20;44.20
28959;DHT22;16066;0.000;0.000;2023-04-24T05:23:01;19.20;44.10
28959;DHT22;16066;0.000;0.000;2023-04-24T05:25:27;19.20;44.10
28959;DHT22;16066;0.000;0.000;2023-04-24T05:27:52;19.20;44.10
28959;DHT22;16066;0.000;0.000;2023-04-24T05:30:19;19.20;44.10
28959;DHT22;16066;0.000;0.000;2023-04-24T05:32:45;19.20;44.10
28959;DHT22;16066;0.000;0.000;2023-04-24T05:35:11;19.20;44.10
28959;DHT22;16066;0.000;0.000;2023-04-24T05:37:37;19.20;44.20
28959;DHT22;16066;0.000;0.000;2023-04-24T05:40:03;19.20;44.30
28959;DHT22;16066;0.000;0.000;2023-04-24T05:42:30;19.20;44.40
28959;DHT22;16066;0.000;0.000;2023-04-24T05:44:56;19.10;44.50
28959;DHT22;16066;0.000;0.000;2023-04-24T05:47:21;19.20;44.70
28959;DHT22;16066;0.000;0.000;2023-04-24T05:49:47;19.10;44.60
28959;DHT22;16066;0.000;0.000;2023-04-24T05:52:13;19.20;44.60
28959;DHT22;16066;0.000;0.000;2023-04-24T05:54:39;19.10;44.50
28959;DHT22;16066;0.000;0.000;2023-04-24T05:57:04;19.10;44.60
28959;DHT22;16066;0.000;0.000;2023-04-24T05:59:33;19.20;44.60
28959;DHT22;16066;0.000;0.000;2023-04-24T06:01:59;19.20;44.80
28959;DHT22;16066;0.000;0.000;2023-04-24T06:04:25;19.20;44.80
28959;DHT22;16066;0.000;0.000;2023-04-24T06:06:50;19.20;44.60
28959;DHT22;16066;0.000;0.000;2023-04-24T06:09:24;19.20;44.70
28959;DHT22;16066;0.000;0.000;2023-04-24T06:11:50;19.20;44.80
28959;DHT22;16066;0.000;0.000;2023-04-24T06:14:18;19.20;44.80
28959;DHT22;16066;0.000;0.000;2023-04-24T06:16:43;19.20;45.10
28959;DHT22;16066;0.000;0.000;2023-04-24T06:19:09;19.20;45.10
28959;DHT22;16066;0.000;0.000;2023-04-24T06:21:35;19.20;45.30
28959;DHT22;16066;0.000;0.000;2023-04-24T06:24:00;19.20;45.50
28959;DHT22;16066;0.000;0.000;2023-04-24T06:26:26;19.20;45.40
28959;DHT22;16066;0.000;0.000;2023-04-24T06:28:52;19.20;45.40
28959;DHT22;16066;0.000;0.000;2023-04-24T06:31:19;19.20;45.40
28959;DHT22;16066;0.000;0.000;2023-04-24T06:33:45;19.20;45.60
28959;DHT22;16066;0.000;0.000;2023-04-24T06:36:11;19.20;46.00
28959;DHT22;16066;0.000;0.000;2023-04-24T06:38:37;19.20;45.80
28959;DHT22;16066;0.000;0.000;2023-04-24T06:41:02;19.20;45.80
28959;DHT22;16066;0.000;0.000;2023-04-24T06:43:30;19.20;45.60
28959;DHT22;16066;0.000;0.000;2023-04-24T06:45:57;19.20;45.60
28959;DHT22;16066;0.000;0.000;2023-04-24T06:48:24;19.20;45.50
28959;DHT22;16066;0.000;0.000;2023-04-24T06:50:49;19.20;45.50
28959;DHT22;16066;0.000;0.000;2023-04-24T06:53:15;19.20;45.60
28959;DHT22;16066;0.000;0.000;2023-04-24T06:55:40;19.30;45.70
28959;DHT22;16066;0.000;0.000;2023-04-24T06:58:06;19.30;45.70
28959;DHT22;16066;0.000;0.000;2023-04-24T07:00:31;19.30;45.70
28959;DHT22;16066;0.000;0.000;2023-04-24T07:02:57;19.30;45.70
28959;DHT22;16066;0.000;0.000;2023-04-24T07:05:23;19.30;45.70
28959;DHT22;16066;0.000;0.000;2023-04-24T07:07:48;19.30;45.70
28959;DHT22;16066;0.000;0.000;2023-04-24T07:10:15;19.40;45.90
28959;DHT22;16066;0.000;0.000;2023-04-24T07:12:40;19.40;45.80
28959;DHT22;16066;0.000;0.000;2023-04-24T07:15:06;19.40;45.60
28959;DHT22;16066;0.000;0.000;2023-04-24T07:17:33;19.40;45.50
28959;DHT22;16066;0.000;0.000;2023-04-24T07:19:59;19.40;45.50
28959;DHT22;16066;0.000;0.000;2023-04-24T07:22:24;19.40;45.40
28959;DHT22;16066;0.000;0.000;2023-04-24T07:24:50;19.40;45.70
28959;DHT22;16066;0.000;0.000;2023-04-24T07:27:15;19.40;45.80
28959;DHT22;16066;0.000;0.000;2023-04-24T07:29:41;19.40;45.90
28959;DHT22;16066;0.000;0.000;2023-04-24T07:32:07;19.50;46.00
28959;DHT22;16066;0.000;0.000;2023-04-24T07:34:33;19.50;46.20
28959;DHT22;16066;0.000;0.000;2023-04-24T07:36:58;19.50;45.90
28959;DHT22;16066;0.000;0.000;2023-04-24T07:39:24;19.50;45.70
28959;DHT22;16066;0.000;0.000;2023-04-24T07:41:50;19.50;45.50
28959;DHT22;16066;0.000;0.000;2023-04-24T07:44:15;19.50;45.40
28959;DHT22;16066;0.000;0.000;2023-04-24T07:46:41;19.50;45.30
28959;DHT22;16066;0.000;0.000;2023-04-24T07:49:06;19.50;45.20
28959;DHT22;16066;0.000;0.000;2023-04-24T07:51:32;19.50;45.20
28959;DHT22;16066;0.000;0.000;2023-04-24T07:54:03;19.50;45.10
28959;DHT22;16066;0.000;0.000;2023-04-24T07:56:30;19.50;45.80
28959;DHT22;16066;0.000;0.000;2023-04-24T07:58:56;19.50;45.10
28959;DHT22;16066;0.000;0.000;2023-04-24T08:01:21;19.50;45.20
28959;DHT22;16066;0.000;0.000;2023-04-24T08:03:47;19.40;45.10
28959;DHT22;16066;0.000;0.000;2023-04-24T08:06:13;19.50;45.10
28959;DHT22;16066;0.000;0.000;2023-04-24T08:08:38;19.50;45.20
28959;DHT22;16066;0.000;0.000;2023-04-24T08:11:04;19.50;45.10
28959;DHT22;16066;0.000;0.000;2023-04-24T08:13:29;19.50;45.00
28959;DHT22;16066;0.000;0.000;2023-04-24T08:15:56;19.40;45.00
28959;DHT22;16066;0.000;0.000;2023-04-24T08:18:22;19.50;44.90
28959;DHT22;16066;0.000;0.000;2023-04-24T08:20:47;19.50;45.00
28959;DHT22;16066;0.000;0.000;2023-04-24T08:23:13;19.50;45.00
28959;DHT22;16066;0.000;0.000;2023-04-24T08:25:39;19.40;44.90
28959;DHT22;16066;0.000;0.000;2023-04-24T08:28:05;19.50;44.80
28959;DHT22;16066;0.000;0.000;2023-04-24T08:30:31;19.40;44.80
28959;DHT22;16066;0.000;0.000;2023-04-24T08:32:57;19.40;44.80
28959;DHT22;16066;0.000;0.000;2023-04-24T08:35:23;19.40;44.80
28959;DHT22;16066;0.000;0.000;2023-04-24T08:37:48;19.40;45.50
28959;DHT22;16066;0.000;0.000;2023-04-24T08:40:15;19.40;45.10
28959;DHT22;16066;0.000;0.000;2023-04-24T08:42:44;19.40;45.20
28959;DHT22;16066;0.000;0.000;2023-04-24T08:45:13;19.40;45.20
28959;DHT22;16066;0.000;0.000;2023-04-24T08:47:40;19.40;45.80
28959;DHT22;16066;0.000;0.000;2023-04-24T08:50:07;19.40;45.30
28959;DHT22;16066;0.000;0.000;2023-04-24T08:52:34;19.40;45.50
28959;DHT22;16066;0.000;0.000;2023-04-24T08:55:00;19.40;46.40
28959;DHT22;16066;0.000;0.000;2023-04-24T08:57:26;19.40;46.10
28959;DHT22;16066;0.000;0.000;2023-04-24T08:59:53;19.50;46.40
28959;DHT22;16066;0.000;0.000;2023-04-24T09:02:19;19.50;46.50
28959;DHT22;16066;0.000;0.000;2023-04-24T09:04:47;19.50;46.70
28959;DHT22;16066;0.000;0.000;2023-04-24T09:07:12;19.50;46.80
28959;DHT22;16066;0.000;0.000;2023-04-24T09:09:39;19.50;46.80
28959;DHT22;16066;0.000;0.000;2023-04-24T09:12:05;19.50;46.80
28959;DHT22;16066;0.000;0.000;2023-04-24T09:14:32;19.50;46.80
28959;DHT22;16066;0.000;0.000;2023-04-24T09:16:58;19.50;46.80
28959;DHT22;16066;0.000;0.000;2023-04-24T09:19:23;19.60;46.70
28959;DHT22;16066;0.000;0.000;2023-04-24T09:21:49;19.60;46.50
28959;DHT22;16066;0.000;0.000;2023-04-24T09:24:21;19.50;46.40
28959;DHT22;16066;0.000;0.000;2023-04-24T09:26:58;19.50;46.40
28959;DHT22;16066;0.000;0.000;2023-04-24T09:29:24;19.60;46.80
28959;DHT22;16066;0.000;0.000;2023-04-24T09:31:50;19.60;46.50
28959;DHT22;16066;0.000;0.000;2023-04-24T09:34:21;19.60;46.70
28959;DHT22;16066;0.000;0.000;2023-04-24T09:36:48;19.70;46.30
28959;DHT22;16066;0.000;0.000;2023-04-24T09:39:15;19.70;46.20
28959;DHT22;16066;0.000;0.000;2023-04-24T09:41:48;19.70;46.10
28959;DHT22;16066;0.000;0.000;2023-04-24T09:44:19;19.70;46.10
28959;DHT22;16066;0.000;0.000;2023-04-24T09:49:27;19.70;46.10
28959;DHT22;16066;0.000;0.000;2023-04-24T09:52:06;19.70;46.20
28959;DHT22;16066;0.000;0.000;2023-04-24T09:54:32;19.70;46.20
28959;DHT22;16066;0.000;0.000;2023-04-24T09:56:58;19.70;46.20
28959;DHT22;16066;0.000;0.000;2023-04-24T09:59:25;19.70;46.20
28959;DHT22;16066;0.000;0.000;2023-04-24T10:01:51;19.70;46.20
28959;DHT22;16066;0.000;0.000;2023-04-24T10:04:25;19.70;46.20
28959;DHT22;16066;0.000;0.000;2023-04-24T10:06:53;19.70;45.90
28959;DHT22;16066;0.000;0.000;2023-04-24T10:09:20;19.70;45.80
28959;DHT22;16066;0.000;0.000;2023-04-24T10:11:48;19.70;45.80
28959;DHT22;16066;0.000;0.000;2023-04-24T10:14:19;19.70;45.80
28959;DHT22;16066;0.000;0.000;2023-04-24T10:16:46;19.70;45.80
28959;DHT22;16066;0.000;0.000;2023-04-24T10:19:15;19.70;46.40
28959;DHT22;16066;0.000;0.000;2023-04-24T10:21:43;19.60;45.90
28959;DHT22;16066;0.000;0.000;2023-04-24T10:24:15;19.60;45.90
28959;DHT22;16066;0.000;0.000;2023-04-24T10:26:42;19.60;46.10
28959;DHT22;16066;0.000;0.000;2023-04-24T10:29:08;19.60;46.40
28959;DHT22;16066;0.000;0.000;2023-04-24T10:31:36;19.60;46.80
28959;DHT22;16066;0.000;0.000;2023-04-24T10:34:04;19.60;47.20
28959;DHT22;16066;0.000;0.000;2023-04-24T10:36:31;19.60;47.40
28959;DHT22;16066;0.000;0.000;2023-04-24T10:39:00;19.60;47.40
28959;DHT22;16066;0.000;0.000;2023-04-24T10:41:26;19.60;47.20
28959;DHT22;16066;0.000;0.000;2023-04-24T10:46:31;19.70;46.60
28959;DHT22;16066;0.000;0.000;2023-04-24T10:48:57;19.70;46.40
28959;DHT22;16066;0.000;0.000;2023-04-24T10:51:24;19.70;46.30
28959;DHT22;16066;0.000;0.000;2023-04-24T10:53:51;19.70;46.10
28959;DHT22;16066;0.000;0.000;2023-04-24T10:56:17;19.70;46.00
28959;DHT22;16066;0.000;0.000;2023-04-24T10:58:50;19.70;45.90
28959;DHT22;16066;0.000;0.000;2023-04-24T11:01:28;19.80;45.90
28959;DHT22;16066;0.000;0.000;2023-04-24T11:03:56;19.80;45.80
28959;DHT22;16066;0.000;0.000;2023-04-24T11:06:35;19.80;45.70
28959;DHT22;16066;0.000;0.000;2023-04-24T11:09:07;19.80;45.60
28959;DHT22;16066;0.000;0.000;2023-04-24T11:11:34;19.80;45.60
28959;DHT22;16066;0.000;0.000;2023-04-24T11:14:01;19.80;45.50
28959;DHT22;16066;0.000;0.000;2023-04-24T11:16:46;19.80;45.50
28959;DHT22;16066;0.000;0.000;2023-04-24T11:21:43;19.80;45.70
28959;DHT22;16066;0.000;0.000;2023-04-24T11:32:23;19.80;45.70
28959;DHT22;16066;0.000;0.000;2023-04-24T11:34:52;19.70;45.60
28959;DHT22;16066;0.000;0.000;2023-04-24T11:37:18;19.80;45.80
28959;DHT22;16066;0.000;0.000;2023-04-24T11:39:43;19.80;45.70
28959;DHT22;16066;0.000;0.000;2023-04-24T11:42:09;19.80;45.60
28959;DHT22;16066;0.000;0.000;2023-04-24T11:44:35;19.80;45.50
28959;DHT22;16066;0.000;0.000;2023-04-24T11:47:06;19.80;45.50
28959;DHT22;16066;0.000;0.000;2023-04-24T11:49:33;19.80;45.60
28959;DHT22;16066;0.000;0.000;2023-04-24T11:52:00;19.80;45.50
28959;DHT22;16066;0.000;0.000;2023-04-24T11:54:26;19.80;45.40
28959;DHT22;16066;0.000;0.000;2023-04-24T11:56:52;19.80;45.50
28959;DHT22;16066;0.000;0.000;2023-04-24T11:59:17;19.80;45.60
28959;DHT22;16066;0.000;0.000;2023-04-24T12:01:44;19.90;45.80
28959;DHT22;16066;0.000;0.000;2023-04-24T12:04:11;19.90;45.70
28959;DHT22;16066;0.000;0.000;2023-04-24T12:06:36;19.90;45.80
28959;DHT22;16066;0.000;0.000;2023-04-24T12:09:02;19.90;45.70
28959;DHT22;16066;0.000;0.000;2023-04-24T12:11:28;20.00;45.70
28959;DHT22;16066;0.000;0.000;2023-04-24T12:13:53;20.00;45.70
28959;DHT22;16066;0.000;0.000;2023-04-24T12:16:19;20.00;45.50
28959;DHT22;16066;0.000;0.000;2023-04-24T12:18:45;20.00;45.40
28959;DHT22;16066;0.000;0.000;2023-04-24T12:21:23;20.10;45.50
28959;DHT22;16066;0.000;0.000;2023-04-24T12:23:54;20.10;45.50
28959;DHT22;16066;0.000;0.000;2023-04-24T12:26:20;20.10;45.40
28959;DHT22;16066;0.000;0.000;2023-04-24T12:28:48;20.10;45.40
28959;DHT22;16066;0.000;0.000;2023-04-24T12:31:15;20.20;45.30
28959;DHT22;16066;0.000;0.000;2023-04-24T12:33:41;20.20;45.30
28959;DHT22;16066;0.000;0.000;2023-04-24T12:36:10;20.20;45.30
28959;DHT22;16066;0.000;0.000;2023-04-24T12:38:37;20.20;45.20
28959;DHT22;16066;0.000;0.000;2023-04-24T12:41:08;20.20;45.20
28959;DHT22;16066;0.000;0.000;2023-04-24T12:43:34;20.20;45.20
28959;DHT22;16066;0.000;0.000;2023-04-24T12:46:00;20.20;45.00
28959;DHT22;16066;0.000;0.000;2023-04-24T12:48:26;20.30;45.00
28959;DHT22;16066;0.000;0.000;2023-04-24T12:50:52;20.30;44.90
28959;DHT22;16066;0.000;0.000;2023-04-24T12:53:18;20.30;44.90
28959;DHT22;16066;0.000;0.000;2023-04-24T12:55:43;20.30;44.80
28959;DHT22;16066;0.000;0.000;2023-04-24T12:58:10;20.30;44.80
28959;DHT22;16066;0.000;0.000;2023-04-24T13:00:36;20.30;44.70
28959;DHT22;16066;0.000;0.000;2023-04-24T13:03:02;20.30;44.70
28959;DHT22;16066;0.000;0.000;2023-04-24T13:05:27;20.30;44.70
28959;DHT22;16066;0.000;0.000;2023-04-24T13:07:53;20.40;44.80
28959;DHT22;16066;0.000;0.000;2023-04-24T13:10:19;20.40;44.60
28959;DHT22;16066;0.000;0.000;2023-04-24T13:12:44;20.40;44.50
28959;DHT22;16066;0.000;0.000;2023-04-24T13:15:11;20.50;45.20
28959;DHT22;16066;0.000;0.000;2023-04-24T13:17:37;20.50;44.30
28959;DHT22;16066;0.000;0.000;2023-04-24T13:20:03;20.60;44.20
28959;DHT22;16066;0.000;0.000;2023-04-24T13:22:28;20.60;44.00
28959;DHT22;16066;0.000;0.000;2023-04-24T13:24:54;20.60;44.00
28959;DHT22;16066;0.000;0.000;2023-04-24T13:27:19;20.60;44.10
28959;DHT22;16066;0.000;0.000;2023-04-24T13:29:45;20.60;43.90
28959;DHT22;16066;0.000;0.000;2023-04-24T13:32:11;20.60;44.00
28959;DHT22;16066;0.000;0.000;2023-04-24T13:34:36;20.60;44.00
28959;DHT22;16066;0.000;0.000;2023-04-24T13:37:03;20.60;44.00
28959;DHT22;16066;0.000;0.000;2023-04-24T13:39:33;20.60;44.00
28959;DHT22;16066;0.000;0.000;2023-04-24T13:41:58;20.60;44.50
28959;DHT22;16066;0.000;0.000;2023-04-24T13:44:24;20.60;44.10
28959;DHT22;16066;0.000;0.000;2023-04-24T13:46:52;20.60;44.10
28959;DHT22;16066;0.000;0.000;2023-04-24T13:49:20;20.60;44.10
28959;DHT22;16066;0.000;0.000;2023-04-24T13:51:46;20.60;44.00
28959;DHT22;16066;0.000;0.000;2023-04-24T13:54:11;20.60;43.90
28959;DHT22;16066;0.000;0.000;2023-04-24T13:56:38;20.60;43.90
28959;DHT22;16066;0.000;0.000;2023-04-24T13:59:03;20.60;44.00
28959;DHT22;16066;0.000;0.000;2023-04-24T14:01:30;20.60;43.90
28959;DHT22;16066;0.000;0.000;2023-04-24T14:03:56;20.60;43.90
28959;DHT22;16066;0.000;0.000;2023-04-24T14:06:22;20.60;43.90
28959;DHT22;16066;0.000;0.000;2023-04-24T14:08:48;20.60;43.70
28959;DHT22;16066;0.000;0.000;2023-04-24T14:11:14;20.60;43.50
28959;DHT22;16066;0.000;0.000;2023-04-24T14:13:41;20.60;43.40
28959;DHT22;16066;0.000;0.000;2023-04-24T14:16:07;20.50;43.40
28959;DHT22;16066;0.000;0.000;2023-04-24T14:18:32;20.50;43.30
28959;DHT22;16066;0.000;0.000;2023-04-24T14:20:58;20.50;43.30
28959;DHT22;16066;0.000;0.000;2023-04-24T14:23:24;20.50;43.30
28959;DHT22;16066;0.000;0.000;2023-04-24T14:25:49;20.50;43.30
28959;DHT22;16066;0.000;0.000;2023-04-24T14:28:18;20.50;43.20
28959;DHT22;16066;0.000;0.000;2023-04-24T14:30:44;20.50;43.20
28959;DHT22;16066;0.000;0.000;2023-04-24T14:33:10;20.50;43.20
28959;DHT22;16066;0.000;0.000;2023-04-24T14:35:36;20.50;43.10
28959;DHT22;16066;0.000;0.000;2023-04-24T14:38:01;20.50;42.90
28959;DHT22;16066;0.000;0.000;2023-04-24T14:40:27;20.50;43.00
28959;DHT22;16066;0.000;0.000;2023-04-24T14:42:53;20.40;42.80
28959;DHT22;16066;0.000;0.000;2023-04-24T14:45:18;20.50;42.90
28959;DHT22;16066;0.000;0.000;2023-04-24T14:47:44;20.40;42.80
28959;DHT22;16066;0.000;0.000;2023-04-24T14:50:10;20.40;42.80
28959;DHT22;16066;0.000;0.000;2023-04-24T14:52:37;20.40;43.20
28959;DHT22;16066;0.000;0.000;2023-04-24T14:55:03;20.40;42.90
28959;DHT22;16066;0.000;0.000;2023-04-24T14:57:29;20.40;42.90
28959;DHT22;16066;0.000;0.000;2023-04-24T14:59:54;20.40;42.90
28959;DHT22;16066;0.000;0.000;2023-04-24T15:02:20;20.40;42.80
28959;DHT22;16066;0.000;0.000;2023-04-24T15:04:46;20.40;42.90
28959;DHT22;16066;0.000;0.000;2023-04-24T15:07:11;20.40;42.90
28959;DHT22;16066;0.000;0.000;2023-04-24T15:09:37;20.40;42.80
28959;DHT22;16066;0.000;0.000;2023-04-24T15:12:03;20.40;42.90
28959;DHT22;16066;0.000;0.000;2023-04-24T15:14:28;20.40;42.90
28959;DHT22;16066;0.000;0.000;2023-04-24T15:16:54;20.40;42.70
28959;DHT22;16066;0.000;0.000;2023-04-24T15:19:20;20.50;42.80
28959;DHT22;16066;0.000;0.000;2023-04-24T15:21:45;20.40;42.50
28959;DHT22;16066;0.000;0.000;2023-04-24T15:24:11;20.40;42.50
28959;DHT22;16066;0.000;0.000;2023-04-24T15:26:36;20.50;42.90
28959;DHT22;16066;0.000;0.000;2023-04-24T15:29:02;20.50;43.10
28959;DHT22;16066;0.000;0.000;2023-04-24T15:31:28;20.50;43.20
28959;DHT22;16066;0.000;0.000;2023-04-24T15:33:53;20.50;43.20
28959;DHT22;16066;0.000;0.000;2023-04-24T15:36:19;20.50;43.20
28959;DHT22;16066;0.000;0.000;2023-04-24T15:38:46;20.50;43.20
28959;DHT22;16066;0.000;0.000;2023-04-24T15:41:12;20.60;43.10
28959;DHT22;16066;0.000;0.000;2023-04-24T15:43:38;20.60;43.10
28959;DHT22;16066;0.000;0.000;2023-04-24T15:46:04;20.60;43.00
28959;DHT22;16066;0.000;0.000;2023-04-24T15:48:30;20.60;42.90
28959;DHT22;16066;0.000;0.000;2023-04-24T15:50:57;20.60;43.00
28959;DHT22;16066;0.000;0.000;2023-04-24T15:53:23;20.60;43.00
28959;DHT22;16066;0.000;0.000;2023-04-24T15:55:50;20.60;43.00